sensor_id;sensor_type;location;lat;lon;timestamp;temperature;humidity
37456;DHT22;23316;50.718;7.328;2023-05-07T00:02:27;17.20;59.10
37456;DHT22;23316;50.718;7.328;2023-05-07T00:04:54;17.20;59.30
37456;DHT22;23316;50.718;7.328;2023-05-07T00:07:21;17.20;59.30
37456;DHT22;23316;50.718;7.328;2023-05-07T00:09:48;17.30;59.30
37456;DHT22;23316;50.718;7.328;2023-05-07T00:12:15;17.20;59.20
37456;DHT22;23316;50.718;7.328;2023-05-07T00:14:43;17.30;59.70
37456;DHT22;23316;50.718;7.328;2023-05-07T00:17:10;17.30;59.30
37456;DHT22;23316;50.718;7.328;2023-05-07T00:19:38;17.30;59.30
37456;DHT22;23316;50.718;7.328;2023-05-07T00:22:06;17.20;59.30
37456;DHT22;23316;50.718;7.328;2023-05-07T00:24:33;17.30;59.30
37456;DHT22;23316;50.718;7.328;2023-05-07T00:27:01;17.30;59.40
37456;DHT22;23316;50.718;7.328;2023-05-07T00:29:28;17.20;59.50
37456;DHT22;23316;50.718;7.328;2023-05-07T00:31:55;17.20;59.50
37456;DHT22;23316;50.718;7.328;2023-05-07T00:34:22;17.20;59.50
37456;DHT22;23316;50.718;7.328;2023-05-07T00:36:51;17.30;59.50
37456;DHT22;23316;50.718;7.328;2023-05-07T00:39:18;17.30;59.50
37456;DHT22;23316;50.718;7.328;2023-05-07T00:41:45;17.30;59.50
37456;DHT22;23316;50.718;7.328;2023-05-07T00:44:13;17.30;59.50
37456;DHT22;23316;50.718;7.328;2023-05-07T00:46:40;17.30;59.60
37456;DHT22;23316;50.718;7.328;2023-05-07T00:49:08;17.30;59.60
37456;DHT22;23316;50.718;7.328;2023-05-07T00:51:35;17.30;60.10
37456;DHT22;23316;50.718;7.328;2023-05-07T00:54:04;17.30;59.50
37456;DHT22;23316;50.718;7.328;2023-05-07T00:56:32;17.30;59.50
37456;DHT22;23316;50.718;7.328;2023-05-07T00:59:00;17.30;59.50
37456;DHT22;23316;50.718;7.328;2023-05-07T01:01:27;17.30;59.50
37456;DHT22;23316;50.718;7.328;2023-05-07T01:03:54;17.30;59.50
37456;DHT22;23316;50.718;7.328;2023-05-07T01:06:23;17.30;59.50
37456;DHT22;23316;50.718;7.328;2023-05-07T01:08:52;17.30;59.50
37456;DHT22;23316;50.718;7.328;2023-05-07T01:11:23;17.30;59.50
37456;DHT22;23316;50.718;7.328;2023-05-07T01:13:51;17.30;59.40
37456;DHT22;23316;50.718;7.328;2023-05-07T01:16:19;17.30;59.40
37456;DHT22;23316;50.718;7.328;2023-05-07T01:18:46;17.30;59.40
37456;DHT22;23316;50.718;7.328;2023-05-07T01:21:15;17.30;59.40
37456;DHT22;23316;50.718;7.328;2023-05-07T01:23:45;17.30;59.40
37456;DHT22;23316;50.718;7.328;2023-05-07T01:26:13;17.30;59.40
37456;DHT22;23316;50.718;7.328;2023-05-07T01:28:40;17.30;59.30
37456;DHT22;23316;50.718;7.328;2023-05-07T01:31:08;17.30;59.30
37456;DHT22;23316;50.718;7.328;2023-05-07T01:33:38;17.30;59.30
37456;DHT22;23316;50.718;7.328;2023-05-07T01:36:08;17.30;59.30
37456;DHT22;23316;50.718;7.328;2023-05-07T01:38:38;17.40;59.40
37456;DHT22;23316;50.718;7.328;2023-05-07T01:41:07;17.30;59.30
37456;DHT22;23316;50.718;7.328;2023-05-07T01:43:35;17.30;59.30
37456;DHT22;23316;50.718;7.328;2023-05-07T01:46:03;17.30;59.30
37456;DHT22;23316;50.718;7.328;2023-05-07T01:48:31;17.30;59.30
37456;DHT22;23316;50.718;7.328;2023-05-07T01:50:59;17.30;59.30
37456;DHT22;23316;50.718;7.328;2023-05-07T01:53:27;17.30;59.30
37456;DHT22;23316;50.718;7.328;2023-05-07T01:55:54;17.30;59.30
37456;DHT22;23316;50.718;7.328;2023-05-07T01:58:23;17.30;59.30
37456;DHT22;23316;50.718;7.328;2023-05-07T02:00:50;17.30;59.30
37456;DHT22;23316;50.718;7.328;2023-05-07T02:03:17;17.30;59.30
37456;DHT22;23316;50.718;7.328;2023-05-07T02:05:45;17.40;59.30
37456;DHT22;23316;50.718;7.328;2023-05-07T02:08:12;17.30;59.30
37456;DHT22;23316;50.718;7.328;2023-05-07T02:10:39;17.30;59.30
37456;DHT22;23316;50.718;7.328;2023-05-07T02:13:06;17.30;59.20
37456;DHT22;23316;50.718;7.328;2023-05-07T02:15:37;17.30;59.20
37456;DHT22;23316;50.718;7.328;2023-05-07T02:18:06;17.40;59.30
37456;DHT22;23316;50.718;7.328;2023-05-07T02:20:33;17.30;59.20
37456;DHT22;23316;50.718;7.328;2023-05-07T02:23:00;17.40;59.20
37456;DHT22;23316;50.718;7.328;2023-05-07T02:25:28;17.40;59.20
37456;DHT22;23316;50.718;7.328;2023-05-07T02:27:55;17.40;59.20
37456;DHT22;23316;50.718;7.328;2023-05-07T02:30:24;17.40;59.20
37456;DHT22;23316;50.718;7.328;2023-05-07T02:32:52;17.40;59.20
37456;DHT22;23316;50.718;7.328;2023-05-07T02:35:20;17.40;59.20
37456;DHT22;23316;50.718;7.328;2023-05-07T02:37:48;17.40;59.20
37456;DHT22;23316;50.718;7.328;2023-05-07T02:40:16;17.30;59.20
37456;DHT22;23316;50.718;7.328;2023-05-07T02:42:43;17.40;59.20
37456;DHT22;23316;50.718;7.328;2023-05-07T02:45:10;17.30;59.10
37456;DHT22;23316;50.718;7.328;2023-05-07T02:47:38;17.40;59.10
37456;DHT22;23316;50.718;7.328;2023-05-07T02:50:10;17.40;59.10
37456;DHT22;23316;50.718;7.328;2023-05-07T02:52:37;17.30;59.10
37456;DHT22;23316;50.718;7.328;2023-05-07T02:55:05;17.40;59.10
37456;DHT22;23316;50.718;7.328;2023-05-07T02:57:33;17.30;59.00
37456;DHT22;23316;50.718;7.328;2023-05-07T03:00:13;17.30;59.00
37456;DHT22;23316;50.718;7.328;2023-05-07T03:02:40;17.30;59.10
37456;DHT22;23316;50.718;7.328;2023-05-07T03:05:09;17.30;59.00
37456;DHT22;23316;50.718;7.328;2023-05-07T03:07:36;17.30;59.00
37456;DHT22;23316;50.718;7.328;2023-05-07T03:10:04;17.30;59.00
37456;DHT22;23316;50.718;7.328;2023-05-07T03:12:32;17.30;59.00
37456;DHT22;23316;50.718;7.328;2023-05-07T03:14:59;17.30;59.00
37456;DHT22;23316;50.718;7.328;2023-05-07T03:17:26;17.30;59.00
37456;DHT22;23316;50.718;7.328;2023-05-07T03:19:54;17.20;58.90
37456;DHT22;23316;50.718;7.328;2023-05-07T03:22:22;17.30;59.00
37456;DHT22;23316;50.718;7.328;2023-05-07T03:24:49;17.20;58.90
37456;DHT22;23316;50.718;7.328;2023-05-07T03:27:17;17.30;58.90
37456;DHT22;23316;50.718;7.328;2023-05-07T03:29:44;17.20;58.90
37456;DHT22;23316;50.718;7.328;2023-05-07T03:32:11;17.20;58.90
37456;DHT22;23316;50.718;7.328;2023-05-07T03:34:38;17.20;58.90
37456;DHT22;23316;50.718;7.328;2023-05-07T03:37:06;17.20;58.90
37456;DHT22;23316;50.718;7.328;2023-05-07T03:39:35;17.20;58.90
37456;DHT22;23316;50.718;7.328;2023-05-07T03:42:03;17.20;59.00
37456;DHT22;23316;50.718;7.328;2023-05-07T03:44:31;17.20;59.00
37456;DHT22;23316;50.718;7.328;2023-05-07T03:46:59;17.20;59.00
37456;DHT22;23316;50.718;7.328;2023-05-07T03:49:26;17.20;59.00
37456;DHT22;23316;50.718;7.328;2023-05-07T03:51:53;17.10;59.00
37456;DHT22;23316;50.718;7.328;2023-05-07T03:54:21;17.10;59.00
37456;DHT22;23316;50.718;7.328;2023-05-07T03:56:50;17.10;59.10
37456;DHT22;23316;50.718;7.328;2023-05-07T03:59:17;17.10;59.10
37456;DHT22;23316;50.718;7.328;2023-05-07T04:01:44;17.10;59.10
37456;DHT22;23316;50.718;7.328;2023-05-07T04:04:11;17.10;59.10
37456;DHT22;23316;50.718;7.328;2023-05-07T04:06:41;17.10;59.10
37456;DHT22;23316;50.718;7.328;2023-05-07T04:09:09;17.10;59.10
37456;DHT22;23316;50.718;7.328;2023-05-07T04:11:36;17.10;59.10
37456;DHT22;23316;50.718;7.328;2023-05-07T04:14:04;17.10;59.10
37456;DHT22;23316;50.718;7.328;2023-05-07T04:16:32;17.20;59.20
37456;DHT22;23316;50.718;7.328;2023-05-07T04:18:59;17.10;59.20
37456;DHT22;23316;50.718;7.328;2023-05-07T04:21:26;17.20;59.30
37456;DHT22;23316;50.718;7.328;2023-05-07T04:23:53;17.20;59.30
37456;DHT22;23316;50.718;7.328;2023-05-07T04:26:21;17.10;59.30
37456;DHT22;23316;50.718;7.328;2023-05-07T04:28:49;17.10;59.30
37456;DHT22;23316;50.718;7.328;2023-05-07T04:31:18;17.10;59.30
37456;DHT22;23316;50.718;7.328;2023-05-07T04:33:45;17.20;59.40
37456;DHT22;23316;50.718;7.328;2023-05-07T04:36:13;17.20;59.40
37456;DHT22;23316;50.718;7.328;2023-05-07T04:38:41;17.20;59.40
37456;DHT22;23316;50.718;7.328;2023-05-07T04:41:09;17.20;59.40
37456;DHT22;23316;50.718;7.328;2023-05-07T04:43:37;17.20;59.40
37456;DHT22;23316;50.718;7.328;2023-05-07T04:46:04;17.20;59.40
37456;DHT22;23316;50.718;7.328;2023-05-07T04:48:33;17.20;59.40
37456;DHT22;23316;50.718;7.328;2023-05-07T04:51:00;17.20;59.50
37456;DHT22;23316;50.718;7.328;2023-05-07T04:53:28;17.30;59.50
37456;DHT22;23316;50.718;7.328;2023-05-07T04:55:58;17.20;59.50
37456;DHT22;23316;50.718;7.328;2023-05-07T04:58:25;17.30;59.50
37456;DHT22;23316;50.718;7.328;2023-05-07T05:00:53;17.30;59.50
37456;DHT22;23316;50.718;7.328;2023-05-07T05:03:20;17.30;59.50
37456;DHT22;23316;50.718;7.328;2023-05-07T05:05:50;17.30;59.50
37456;DHT22;23316;50.718;7.328;2023-05-07T05:08:18;17.30;59.50
37456;DHT22;23316;50.718;7.328;2023-05-07T05:10:45;17.40;59.50
37456;DHT22;23316;50.718;7.328;2023-05-07T05:13:14;17.30;59.40
37456;DHT22;23316;50.718;7.328;2023-05-07T05:15:41;17.40;59.50
37456;DHT22;23316;50.718;7.328;2023-05-07T05:18:10;17.40;59.40
37456;DHT22;23316;50.718;7.328;2023-05-07T05:20:37;17.40;59.40
37456;DHT22;23316;50.718;7.328;2023-05-07T05:23:07;17.40;59.30
37456;DHT22;23316;50.718;7.328;2023-05-07T05:25:34;17.50;59.30
37456;DHT22;23316;50.718;7.328;2023-05-07T05:28:01;17.50;59.30
37456;DHT22;23316;50.718;7.328;2023-05-07T05:30:29;17.50;59.30
37456;DHT22;23316;50.718;7.328;2023-05-07T05:32:56;17.50;59.30
37456;DHT22;23316;50.718;7.328;2023-05-07T05:35:23;17.50;59.30
37456;DHT22;23316;50.718;7.328;2023-05-07T05:37:51;17.60;59.30
37456;DHT22;23316;50.718;7.328;2023-05-07T05:40:19;17.60;59.30
37456;DHT22;23316;50.718;7.328;2023-05-07T05:42:47;17.60;59.30
37456;DHT22;23316;50.718;7.328;2023-05-07T05:45:14;17.70;59.30
37456;DHT22;23316;50.718;7.328;2023-05-07T05:47:41;17.70;59.30
37456;DHT22;23316;50.718;7.328;2023-05-07T05:50:09;17.70;59.30
37456;DHT22;23316;50.718;7.328;2023-05-07T05:52:36;17.80;59.30
37456;DHT22;23316;50.718;7.328;2023-05-07T05:55:04;17.80;59.20
37456;DHT22;23316;50.718;7.328;2023-05-07T05:57:33;17.80;59.20
37456;DHT22;23316;50.718;7.328;2023-05-07T06:00:00;17.90;59.20
37456;DHT22;23316;50.718;7.328;2023-05-07T06:02:28;17.90;59.20
37456;DHT22;23316;50.718;7.328;2023-05-07T06:04:56;18.00;59.10
37456;DHT22;23316;50.718;7.328;2023-05-07T06:07:24;18.00;59.00
37456;DHT22;23316;50.718;7.328;2023-05-07T06:09:52;18.10;59.00
37456;DHT22;23316;50.718;7.328;2023-05-07T06:12:20;18.10;59.00
37456;DHT22;23316;50.718;7.328;2023-05-07T06:14:49;18.10;58.90
37456;DHT22;23316;50.718;7.328;2023-05-07T06:17:17;18.20;58.90
37456;DHT22;23316;50.718;7.328;2023-05-07T06:19:45;18.20;58.90
37456;DHT22;23316;50.718;7.328;2023-05-07T06:22:13;18.20;58.90
37456;DHT22;23316;50.718;7.328;2023-05-07T06:24:41;18.30;59.00
37456;DHT22;23316;50.718;7.328;2023-05-07T06:27:09;18.30;58.90
37456;DHT22;23316;50.718;7.328;2023-05-07T06:29:37;18.30;58.90
37456;DHT22;23316;50.718;7.328;2023-05-07T06:32:09;18.40;58.80
37456;DHT22;23316;50.718;7.328;2023-05-07T06:34:38;18.40;58.70
37456;DHT22;23316;50.718;7.328;2023-05-07T06:37:06;18.50;58.70
37456;DHT22;23316;50.718;7.328;2023-05-07T06:39:34;18.50;58.70
37456;DHT22;23316;50.718;7.328;2023-05-07T06:42:01;18.60;58.60
37456;DHT22;23316;50.718;7.328;2023-05-07T06:44:30;18.60;58.50
37456;DHT22;23316;50.718;7.328;2023-05-07T06:46:58;18.70;58.40
37456;DHT22;23316;50.718;7.328;2023-05-07T06:49:27;18.70;58.30
37456;DHT22;23316;50.718;7.328;2023-05-07T06:51:55;18.80;58.30
37456;DHT22;23316;50.718;7.328;2023-05-07T06:54:23;18.80;58.20
37456;DHT22;23316;50.718;7.328;2023-05-07T06:56:52;18.90;58.00
37456;DHT22;23316;50.718;7.328;2023-05-07T06:59:19;19.00;58.00
37456;DHT22;23316;50.718;7.328;2023-05-07T07:01:47;19.00;57.70
37456;DHT22;23316;50.718;7.328;2023-05-07T07:04:15;19.10;57.70
37456;DHT22;23316;50.718;7.328;2023-05-07T07:06:45;19.10;57.50
37456;DHT22;23316;50.718;7.328;2023-05-07T07:09:12;19.20;57.40
37456;DHT22;23316;50.718;7.328;2023-05-07T07:11:40;19.20;57.30
37456;DHT22;23316;50.718;7.328;2023-05-07T07:14:07;19.30;57.10
37456;DHT22;23316;50.718;7.328;2023-05-07T07:16:34;19.30;56.90
37456;DHT22;23316;50.718;7.328;2023-05-07T07:19:01;19.40;56.60
37456;DHT22;23316;50.718;7.328;2023-05-07T07:21:29;19.40;56.40
37456;DHT22;23316;50.718;7.328;2023-05-07T07:23:58;19.40;56.20
37456;DHT22;23316;50.718;7.328;2023-05-07T07:26:25;19.50;55.90
37456;DHT22;23316;50.718;7.328;2023-05-07T07:28:52;19.50;55.90
37456;DHT22;23316;50.718;7.328;2023-05-07T07:31:19;19.50;55.70
37456;DHT22;23316;50.718;7.328;2023-05-07T07:33:47;19.60;55.70
37456;DHT22;23316;50.718;7.328;2023-05-07T07:36:16;19.60;55.60
37456;DHT22;23316;50.718;7.328;2023-05-07T07:38:43;19.70;55.60
37456;DHT22;23316;50.718;7.328;2023-05-07T07:41:11;19.70;55.60
37456;DHT22;23316;50.718;7.328;2023-05-07T07:43:39;19.70;55.50
37456;DHT22;23316;50.718;7.328;2023-05-07T07:46:06;19.80;55.50
37456;DHT22;23316;50.718;7.328;2023-05-07T07:48:33;19.80;55.50
37456;DHT22;23316;50.718;7.328;2023-05-07T07:51:00;19.80;55.50
37456;DHT22;23316;50.718;7.328;2023-05-07T07:53:28;19.90;55.50
37456;DHT22;23316;50.718;7.328;2023-05-07T07:55:55;20.00;55.60
37456;DHT22;23316;50.718;7.328;2023-05-07T07:58:24;20.00;55.50
37456;DHT22;23316;50.718;7.328;2023-05-07T08:00:51;20.00;55.40
37456;DHT22;23316;50.718;7.328;2023-05-07T08:03:20;20.00;55.50
37456;DHT22;23316;50.718;7.328;2023-05-07T08:05:47;20.10;55.50
37456;DHT22;23316;50.718;7.328;2023-05-07T08:08:16;20.10;55.40
37456;DHT22;23316;50.718;7.328;2023-05-07T08:10:43;20.20;55.30
37456;DHT22;23316;50.718;7.328;2023-05-07T08:13:10;20.20;55.30
37456;DHT22;23316;50.718;7.328;2023-05-07T08:15:39;20.30;55.10
37456;DHT22;23316;50.718;7.328;2023-05-07T08:18:06;20.30;55.00
37456;DHT22;23316;50.718;7.328;2023-05-07T08:20:34;20.40;55.00
37456;DHT22;23316;50.718;7.328;2023-05-07T08:23:05;20.40;54.90
37456;DHT22;23316;50.718;7.328;2023-05-07T08:25:33;20.50;54.90
37456;DHT22;23316;50.718;7.328;2023-05-07T08:28:00;20.50;55.00
37456;DHT22;23316;50.718;7.328;2023-05-07T08:30:29;20.60;54.90
37456;DHT22;23316;50.718;7.328;2023-05-07T08:32:57;20.70;54.60
37456;DHT22;23316;50.718;7.328;2023-05-07T08:35:24;20.80;54.70
37456;DHT22;23316;50.718;7.328;2023-05-07T08:37:53;20.90;54.70
37456;DHT22;23316;50.718;7.328;2023-05-07T08:40:20;20.90;54.60
37456;DHT22;23316;50.718;7.328;2023-05-07T08:42:49;21.10;54.60
37456;DHT22;23316;50.718;7.328;2023-05-07T08:45:19;21.10;54.30
37456;DHT22;23316;50.718;7.328;2023-05-07T08:47:50;21.20;53.90
37456;DHT22;23316;50.718;7.328;2023-05-07T08:50:20;21.30;53.80
37456;DHT22;23316;50.718;7.328;2023-05-07T08:52:48;21.40;53.70
37456;DHT22;23316;50.718;7.328;2023-05-07T08:55:15;21.50;53.50
37456;DHT22;23316;50.718;7.328;2023-05-07T08:57:43;21.60;53.30
37456;DHT22;23316;50.718;7.328;2023-05-07T09:00:11;21.60;53.00
37456;DHT22;23316;50.718;7.328;2023-05-07T09:02:39;21.70;52.80
37456;DHT22;23316;50.718;7.328;2023-05-07T09:05:07;21.80;52.80
37456;DHT22;23316;50.718;7.328;2023-05-07T09:07:36;21.80;52.60
37456;DHT22;23316;50.718;7.328;2023-05-07T09:10:04;21.90;52.50
37456;DHT22;23316;50.718;7.328;2023-05-07T09:12:31;21.90;52.20
37456;DHT22;23316;50.718;7.328;2023-05-07T09:15:01;21.90;52.00
37456;DHT22;23316;50.718;7.328;2023-05-07T09:17:28;22.00;52.00
37456;DHT22;23316;50.718;7.328;2023-05-07T09:19:56;22.10;52.10
37456;DHT22;23316;50.718;7.328;2023-05-07T09:22:23;22.10;52.10
37456;DHT22;23316;50.718;7.328;2023-05-07T09:24:51;22.10;52.20
37456;DHT22;23316;50.718;7.328;2023-05-07T09:27:19;22.20;52.10
37456;DHT22;23316;50.718;7.328;2023-05-07T09:29:46;22.30;52.20
37456;DHT22;23316;50.718;7.328;2023-05-07T09:32:14;22.30;52.20
37456;DHT22;23316;50.718;7.328;2023-05-07T09:34:44;22.40;52.00
37456;DHT22;23316;50.718;7.328;2023-05-07T09:37:13;22.40;51.90
37456;DHT22;23316;50.718;7.328;2023-05-07T09:39:41;22.50;51.70
37456;DHT22;23316;50.718;7.328;2023-05-07T09:42:11;22.50;51.40
37456;DHT22;23316;50.718;7.328;2023-05-07T09:44:38;22.50;51.40
37456;DHT22;23316;50.718;7.328;2023-05-07T09:47:07;22.60;51.50
37456;DHT22;23316;50.718;7.328;2023-05-07T09:49:36;22.60;51.40
37456;DHT22;23316;50.718;7.328;2023-05-07T09:52:05;22.70;51.30
37456;DHT22;23316;50.718;7.328;2023-05-07T09:54:35;22.80;51.20
37456;DHT22;23316;50.718;7.328;2023-05-07T09:57:04;22.90;51.30
37456;DHT22;23316;50.718;7.328;2023-05-07T09:59:34;23.00;51.10
37456;DHT22;23316;50.718;7.328;2023-05-07T10:02:04;23.00;50.60
37456;DHT22;23316;50.718;7.328;2023-05-07T10:04:32;23.10;50.40
37456;DHT22;23316;50.718;7.328;2023-05-07T10:06:59;23.20;50.30
37456;DHT22;23316;50.718;7.328;2023-05-07T10:09:27;23.20;50.20
37456;DHT22;23316;50.718;7.328;2023-05-07T10:11:54;23.30;50.10
37456;DHT22;23316;50.718;7.328;2023-05-07T10:14:23;23.30;49.90
37456;DHT22;23316;50.718;7.328;2023-05-07T10:16:53;23.40;49.70
37456;DHT22;23316;50.718;7.328;2023-05-07T10:19:22;23.40;49.60
37456;DHT22;23316;50.718;7.328;2023-05-07T10:21:55;23.50;49.40
37456;DHT22;23316;50.718;7.328;2023-05-07T10:24:26;23.50;49.10
37456;DHT22;23316;50.718;7.328;2023-05-07T10:26:56;23.60;49.10
37456;DHT22;23316;50.718;7.328;2023-05-07T10:29:35;23.60;48.70
37456;DHT22;23316;50.718;7.328;2023-05-07T10:32:19;23.60;48.60
37456;DHT22;23316;50.718;7.328;2023-05-07T10:34:57;23.60;48.40
37456;DHT22;23316;50.718;7.328;2023-05-07T10:37:26;23.60;48.50
37456;DHT22;23316;50.718;7.328;2023-05-07T10:39:53;23.60;48.10
37456;DHT22;23316;50.718;7.328;2023-05-07T10:42:20;23.60;48.00
37456;DHT22;23316;50.718;7.328;2023-05-07T10:44:48;23.50;48.40
37456;DHT22;23316;50.718;7.328;2023-05-07T10:47:17;23.50;48.60
37456;DHT22;23316;50.718;7.328;2023-05-07T10:50:20;23.50;48.10
37456;DHT22;23316;50.718;7.328;2023-05-07T10:53:20;23.60;48.00
37456;DHT22;23316;50.718;7.328;2023-05-07T10:55:50;23.60;47.70
37456;DHT22;23316;50.718;7.328;2023-05-07T10:58:23;23.60;48.10
37456;DHT22;23316;50.718;7.328;2023-05-07T11:00:56;23.60;47.80
37456;DHT22;23316;50.718;7.328;2023-05-07T11:03:25;23.70;47.30
37456;DHT22;23316;50.718;7.328;2023-05-07T11:06:12;23.70;47.30
37456;DHT22;23316;50.718;7.328;2023-05-07T11:08:55;23.80;47.10
37456;DHT22;23316;50.718;7.328;2023-05-07T11:11:46;23.80;47.10
37456;DHT22;23316;50.718;7.328;2023-05-07T11:14:13;23.80;46.90
37456;DHT22;23316;50.718;7.328;2023-05-07T11:16:42;23.80;47.20
37456;DHT22;23316;50.718;7.328;2023-05-07T11:19:11;23.90;47.20
37456;DHT22;23316;50.718;7.328;2023-05-07T11:21:40;23.90;47.10
37456;DHT22;23316;50.718;7.328;2023-05-07T11:24:08;24.00;47.00
37456;DHT22;23316;50.718;7.328;2023-05-07T11:26:44;24.00;46.80
37456;DHT22;23316;50.718;7.328;2023-05-07T11:29:12;24.00;46.40
37456;DHT22;23316;50.718;7.328;2023-05-07T11:31:40;24.10;46.50
37456;DHT22;23316;50.718;7.328;2023-05-07T11:34:08;24.10;46.40
37456;DHT22;23316;50.718;7.328;2023-05-07T11:36:42;24.20;46.00
37456;DHT22;23316;50.718;7.328;2023-05-07T11:39:26;24.30;46.10
37456;DHT22;23316;50.718;7.328;2023-05-07T11:41:54;24.40;45.90
37456;DHT22;23316;50.718;7.328;2023-05-07T11:44:21;24.50;46.60
37456;DHT22;23316;50.718;7.328;2023-05-07T11:46:49;24.50;45.70
37456;DHT22;23316;50.718;7.328;2023-05-07T11:49:17;24.50;45.60
37456;DHT22;23316;50.718;7.328;2023-05-07T11:51:46;24.50;45.50
37456;DHT22;23316;50.718;7.328;2023-05-07T11:54:16;24.50;45.40
37456;DHT22;23316;50.718;7.328;2023-05-07T11:56:44;24.50;45.10
37456;DHT22;23316;50.718;7.328;2023-05-07T11:59:12;24.50;46.10
37456;DHT22;23316;50.718;7.328;2023-05-07T12:01:39;24.50;46.60
37456;DHT22;23316;50.718;7.328;2023-05-07T12:04:06;24.50;47.50
37456;DHT22;23316;50.718;7.328;2023-05-07T12:06:36;24.40;48.00
37456;DHT22;23316;50.718;7.328;2023-05-07T12:09:05;24.40;48.80
37456;DHT22;23316;50.718;7.328;2023-05-07T12:11:37;24.30;49.00
37456;DHT22;23316;50.718;7.328;2023-05-07T12:14:06;24.20;49.20
37456;DHT22;23316;50.718;7.328;2023-05-07T12:16:33;24.20;49.70
37456;DHT22;23316;50.718;7.328;2023-05-07T12:19:01;24.00;48.70
37456;DHT22;23316;50.718;7.328;2023-05-07T12:21:29;23.90;48.50
37456;DHT22;23316;50.718;7.328;2023-05-07T12:23:56;23.80;49.20
37456;DHT22;23316;50.718;7.328;2023-05-07T12:26:25;23.60;49.00
37456;DHT22;23316;50.718;7.328;2023-05-07T12:28:52;23.40;49.50
37456;DHT22;23316;50.718;7.328;2023-05-07T12:31:20;23.30;49.90
37456;DHT22;23316;50.718;7.328;2023-05-07T12:33:47;23.10;50.00
37456;DHT22;23316;50.718;7.328;2023-05-07T12:36:14;23.00;49.90
37456;DHT22;23316;50.718;7.328;2023-05-07T12:38:42;22.90;50.70
37456;DHT22;23316;50.718;7.328;2023-05-07T12:41:10;22.70;51.00
37456;DHT22;23316;50.718;7.328;2023-05-07T12:43:39;22.50;51.20
37456;DHT22;23316;50.718;7.328;2023-05-07T12:46:07;22.30;51.60
37456;DHT22;23316;50.718;7.328;2023-05-07T12:48:37;22.20;52.10
37456;DHT22;23316;50.718;7.328;2023-05-07T12:51:05;22.10;52.90
37456;DHT22;23316;50.718;7.328;2023-05-07T12:53:32;22.00;52.90
37456;DHT22;23316;50.718;7.328;2023-05-07T12:56:00;21.90;53.20
37456;DHT22;23316;50.718;7.328;2023-05-07T12:58:28;21.80;53.30
37456;DHT22;23316;50.718;7.328;2023-05-07T13:00:59;21.70;53.10
37456;DHT22;23316;50.718;7.328;2023-05-07T13:03:28;21.60;53.80
37456;DHT22;23316;50.718;7.328;2023-05-07T13:05:58;21.50;53.90
37456;DHT22;23316;50.718;7.328;2023-05-07T13:08:31;21.40;54.20
37456;DHT22;23316;50.718;7.328;2023-05-07T13:10:59;21.40;54.50
37456;DHT22;23316;50.718;7.328;2023-05-07T13:13:29;21.40;54.70
37456;DHT22;23316;50.718;7.328;2023-05-07T13:15:58;21.40;55.00
37456;DHT22;23316;50.718;7.328;2023-05-07T13:18:26;21.30;55.40
37456;DHT22;23316;50.718;7.328;2023-05-07T13:20:53;21.40;55.70
37456;DHT22;23316;50.718;7.328;2023-05-07T13:23:21;21.50;56.20
37456;DHT22;23316;50.718;7.328;2023-05-07T13:25:49;21.60;56.60
37456;DHT22;23316;50.718;7.328;2023-05-07T13:28:16;21.70;56.50
37456;DHT22;23316;50.718;7.328;2023-05-07T13:30:44;21.70;56.70
37456;DHT22;23316;50.718;7.328;2023-05-07T13:33:13;21.70;56.70
37456;DHT22;23316;50.718;7.328;2023-05-07T13:35:41;21.80;56.70
37456;DHT22;23316;50.718;7.328;2023-05-07T13:38:08;21.90;56.90
37456;DHT22;23316;50.718;7.328;2023-05-07T13:40:35;21.90;57.20
37456;DHT22;23316;50.718;7.328;2023-05-07T13:43:03;22.10;56.10
37456;DHT22;23316;50.718;7.328;2023-05-07T13:45:30;22.10;56.10
37456;DHT22;23316;50.718;7.328;2023-05-07T13:47:57;22.20;56.00
37456;DHT22;23316;50.718;7.328;2023-05-07T13:50:26;22.30;55.50
37456;DHT22;23316;50.718;7.328;2023-05-07T13:52:55;22.40;55.60
37456;DHT22;23316;50.718;7.328;2023-05-07T13:55:24;22.50;55.30
37456;DHT22;23316;50.718;7.328;2023-05-07T13:57:55;22.60;55.10
37456;DHT22;23316;50.718;7.328;2023-05-07T14:00:24;22.60;54.30
37456;DHT22;23316;50.718;7.328;2023-05-07T14:02:52;22.70;53.80
37456;DHT22;23316;50.718;7.328;2023-05-07T14:05:19;22.80;53.70
37456;DHT22;23316;50.718;7.328;2023-05-07T14:07:50;22.90;53.50
37456;DHT22;23316;50.718;7.328;2023-05-07T14:10:18;22.90;53.00
37456;DHT22;23316;50.718;7.328;2023-05-07T14:12:46;23.00;53.30
37456;DHT22;23316;50.718;7.328;2023-05-07T14:15:13;23.10;52.80
37456;DHT22;23316;50.718;7.328;2023-05-07T14:17:42;23.10;53.00
37456;DHT22;23316;50.718;7.328;2023-05-07T14:20:09;23.20;53.00
37456;DHT22;23316;50.718;7.328;2023-05-07T14:22:37;23.20;52.50
37456;DHT22;23316;50.718;7.328;2023-05-07T14:25:07;23.30;52.20
37456;DHT22;23316;50.718;7.328;2023-05-07T14:27:35;23.40;52.10
37456;DHT22;23316;50.718;7.328;2023-05-07T14:30:02;23.40;52.10
37456;DHT22;23316;50.718;7.328;2023-05-07T14:32:30;23.40;51.80
37456;DHT22;23316;50.718;7.328;2023-05-07T14:34:57;23.40;51.30
37456;DHT22;23316;50.718;7.328;2023-05-07T14:37:24;23.40;50.30
37456;DHT22;23316;50.718;7.328;2023-05-07T14:39:52;23.40;50.60
37456;DHT22;23316;50.718;7.328;2023-05-07T14:42:20;23.40;50.70
37456;DHT22;23316;50.718;7.328;2023-05-07T14:44:47;23.40;49.90
37456;DHT22;23316;50.718;7.328;2023-05-07T14:47:15;23.40;50.10
37456;DHT22;23316;50.718;7.328;2023-05-07T14:49:42;23.30;49.40
37456;DHT22;23316;50.718;7.328;2023-05-07T14:52:09;23.20;49.30
37456;DHT22;23316;50.718;7.328;2023-05-07T14:54:37;23.10;49.70
37456;DHT22;23316;50.718;7.328;2023-05-07T14:57:05;23.10;50.60
37456;DHT22;23316;50.718;7.328;2023-05-07T14:59:34;23.00;51.90
37456;DHT22;23316;50.718;7.328;2023-05-07T15:02:01;22.90;51.80
37456;DHT22;23316;50.718;7.328;2023-05-07T15:04:29;22.90;51.70
37456;DHT22;23316;50.718;7.328;2023-05-07T15:06:56;22.80;51.80
37456;DHT22;23316;50.718;7.328;2023-05-07T15:09:23;22.70;51.60
37456;DHT22;23316;50.718;7.328;2023-05-07T15:11:50;22.70;51.40
37456;DHT22;23316;50.718;7.328;2023-05-07T15:14:18;22.60;51.70
37456;DHT22;23316;50.718;7.328;2023-05-07T15:16:49;22.60;51.90
37456;DHT22;23316;50.718;7.328;2023-05-07T15:19:16;22.50;52.10
37456;DHT22;23316;50.718;7.328;2023-05-07T15:21:43;22.40;52.30
37456;DHT22;23316;50.718;7.328;2023-05-07T15:24:10;22.40;52.60
37456;DHT22;23316;50.718;7.328;2023-05-07T15:26:37;22.30;52.80
37456;DHT22;23316;50.718;7.328;2023-05-07T15:29:05;22.30;53.00
37456;DHT22;23316;50.718;7.328;2023-05-07T15:31:36;22.30;53.20
37456;DHT22;23316;50.718;7.328;2023-05-07T15:34:06;22.20;53.20
37456;DHT22;23316;50.718;7.328;2023-05-07T15:36:33;22.10;53.30
37456;DHT22;23316;50.718;7.328;2023-05-07T15:39:01;22.10;53.60